createdAt,value
2017-11-24T00:01:09.660Z,5.63
2017-11-24T00:03:37.129Z,5.57
2017-11-24T00:06:04.672Z,5.53
2017-11-24T00:08:35.325Z,5.57
2017-11-24T00:11:02.824Z,5.54
2017-11-24T00:13:30.325Z,5.61
2017-11-24T00:15:57.854Z,5.61
2017-11-24T00:18:25.541Z,5.59
2017-11-24T00:20:53.017Z,5.57
2017-11-24T00:23:20.553Z,5.55
2017-11-24T00:25:48.030Z,5.53
2017-11-24T00:28:15.668Z,5.55
2017-11-24T00:30:43.205Z,5.55
2017-11-24T00:33:10.660Z,5.54
2017-11-24T00:35:38.155Z,5.53
2017-11-24T00:38:05.668Z,5.59
2017-11-24T00:40:36.733Z,5.56
2017-11-24T00:43:04.209Z,5.56
2017-11-24T00:45:31.688Z,5.52
2017-11-24T00:47:59.172Z,5.62
2017-11-24T00:50:26.681Z,5.69
2017-11-24T00:52:54.145Z,5.65
2017-11-24T00:55:21.653Z,5.70
2017-11-24T00:57:49.158Z,5.67
2017-11-24T01:00:16.620Z,5.64
2017-11-24T01:02:44.072Z,5.63
2017-11-24T01:05:11.552Z,5.68
2017-11-24T01:07:39.012Z,5.67
2017-11-24T01:10:06.467Z,5.61
2017-11-24T01:12:34.565Z,5.64
2017-11-24T01:15:02.085Z,5.66
2017-11-24T01:17:29.585Z,5.65
2017-11-24T01:19:57.073Z,5.59
2017-11-24T01:22:24.533Z,5.55
2017-11-24T01:24:51.986Z,5.58
2017-11-24T01:27:19.469Z,5.61
2017-11-24T01:29:46.929Z,5.59
2017-11-24T01:32:14.402Z,5.60
2017-11-24T01:34:41.917Z,5.62
2017-11-24T01:37:09.444Z,5.53
2017-11-24T01:39:36.905Z,5.45
2017-11-24T01:42:04.424Z,5.38
2017-11-24T01:44:33.610Z,5.44
2017-11-24T01:47:01.100Z,5.49
2017-11-24T01:49:28.572Z,5.51
2017-11-24T01:51:56.086Z,5.47
2017-11-24T01:54:23.563Z,5.44
2017-11-24T01:56:51.029Z,5.44
2017-11-24T01:59:18.513Z,5.60
2017-11-24T02:01:45.988Z,5.55
2017-11-24T02:04:14.466Z,5.59
2017-11-24T02:06:41.961Z,5.54
2017-11-24T02:09:09.413Z,5.48
2017-11-24T02:11:36.920Z,5.36
2017-11-24T02:14:04.402Z,5.26
2017-11-24T02:16:31.969Z,5.17
2017-11-24T02:18:59.449Z,5.15
2017-11-24T02:21:26.945Z,5.15
2017-11-24T02:23:54.418Z,5.12
2017-11-24T02:26:21.987Z,5.12
2017-11-24T02:28:49.503Z,5.08
2017-11-24T02:31:17.049Z,5.11
2017-11-24T02:33:44.557Z,5.07
2017-11-24T02:36:12.085Z,5.05
2017-11-24T02:38:39.540Z,5.07
2017-11-24T02:41:07.042Z,5.07
2017-11-24T02:43:34.522Z,5.05
2017-11-24T02:46:02.014Z,5.06
2017-11-24T02:48:29.560Z,4.99
2017-11-24T02:50:57.093Z,4.95
2017-11-24T02:53:24.577Z,4.88
2017-11-24T02:55:52.068Z,4.86
2017-11-24T02:58:19.571Z,4.86
2017-11-24T03:00:47.049Z,4.92
2017-11-24T03:03:14.703Z,4.87
2017-11-24T03:05:42.210Z,4.96
2017-11-24T03:08:09.708Z,4.96
2017-11-24T03:10:37.241Z,4.96
2017-11-24T03:13:04.701Z,4.96
2017-11-24T03:15:32.208Z,4.95
2017-11-24T03:17:59.694Z,4.93
2017-11-24T03:20:27.172Z,4.96
2017-11-24T03:22:54.672Z,4.93
2017-11-24T03:25:22.134Z,4.88
2017-11-24T03:27:49.612Z,4.84
2017-11-24T03:30:17.136Z,4.76
2017-11-24T03:32:44.616Z,4.78
2017-11-24T03:35:12.078Z,4.81
2017-11-24T03:37:39.673Z,4.86
2017-11-24T03:40:07.138Z,4.82
2017-11-24T03:42:34.602Z,4.78
2017-11-24T03:45:02.071Z,4.78
2017-11-24T03:47:29.541Z,4.86
2017-11-24T03:49:57.009Z,4.87
2017-11-24T03:52:24.555Z,4.86
2017-11-24T03:54:52.015Z,4.86
2017-11-24T03:57:19.515Z,4.87
2017-11-24T03:59:46.981Z,4.94
2017-11-24T04:02:15.690Z,4.93
2017-11-24T04:04:43.168Z,4.90
2017-11-24T04:07:10.668Z,4.82
2017-11-24T04:09:38.108Z,4.86
2017-11-24T04:12:05.593Z,4.93
2017-11-24T04:14:34.464Z,4.83
2017-11-24T04:17:02.027Z,4.91
2017-11-24T04:19:29.502Z,4.78
2017-11-24T04:21:57.781Z,4.76
2017-11-24T04:24:25.307Z,4.72
2017-11-24T04:26:52.792Z,4.70
2017-11-24T04:29:20.260Z,4.66
2017-11-24T04:31:47.732Z,4.62
2017-11-24T04:34:15.224Z,4.63
2017-11-24T04:36:42.706Z,4.62
2017-11-24T04:39:10.193Z,4.61
2017-11-24T04:41:37.634Z,4.60
2017-11-24T04:44:05.110Z,4.66
2017-11-24T04:46:33.595Z,4.67
2017-11-24T04:49:01.101Z,4.70
2017-11-24T04:51:28.558Z,4.79
2017-11-24T04:53:56.032Z,4.81
2017-11-24T04:56:23.489Z,4.81
2017-11-24T04:58:50.952Z,4.90
2017-11-24T05:01:18.396Z,4.89
2017-11-24T05:03:45.844Z,4.86
2017-11-24T05:06:13.400Z,4.83
2017-11-24T05:08:40.884Z,4.82
2017-11-24T05:11:08.337Z,4.78
2017-11-24T05:13:35.797Z,4.79
2017-11-24T05:16:03.270Z,4.79
2017-11-24T05:18:30.734Z,4.84
2017-11-24T05:20:58.249Z,4.87
2017-11-24T05:23:25.747Z,4.86
2017-11-24T05:25:53.205Z,4.92
2017-11-24T05:28:20.648Z,4.97
2017-11-24T05:30:48.284Z,4.97
2017-11-24T05:33:16.005Z,5.01
2017-11-24T05:35:43.477Z,5.03
2017-11-24T05:38:10.944Z,5.03
2017-11-24T05:40:38.413Z,4.99
2017-11-24T05:43:05.869Z,5.02
2017-11-24T05:45:33.355Z,5.03
2017-11-24T05:48:00.804Z,5.08
2017-11-24T05:50:28.264Z,5.09
2017-11-24T05:52:55.732Z,5.13
2017-11-24T05:55:23.704Z,5.09
2017-11-24T05:57:51.165Z,5.15
2017-11-24T06:00:18.618Z,5.10
2017-11-24T06:02:46.073Z,5.04
2017-11-24T06:05:13.569Z,5.05
2017-11-24T06:07:41.021Z,4.98
2017-11-24T06:10:08.504Z,5.01
2017-11-24T06:12:35.961Z,5.02
2017-11-24T06:15:03.422Z,4.99
2017-11-24T06:17:30.907Z,5.01
2017-11-24T06:19:58.419Z,5.15
2017-11-24T06:22:25.898Z,5.12
2017-11-24T06:24:53.388Z,5.11
2017-11-24T06:27:20.842Z,5.12
2017-11-24T06:29:48.313Z,5.06
2017-11-24T06:32:16.130Z,5.09
2017-11-24T06:34:43.588Z,5.09
2017-11-24T06:37:11.051Z,5.19
2017-11-24T06:39:38.536Z,5.19
2017-11-24T06:42:05.992Z,5.24
2017-11-24T06:44:35.420Z,5.29
2017-11-24T06:47:02.905Z,5.22
2017-11-24T06:49:30.407Z,5.20
2017-11-24T06:51:57.872Z,5.19
2017-11-24T06:54:25.348Z,5.17
2017-11-24T06:56:52.870Z,5.22
2017-11-24T06:59:20.390Z,5.27
2017-11-24T07:01:47.849Z,5.28
2017-11-24T07:04:16.278Z,5.32
2017-11-24T07:06:43.793Z,5.39
2017-11-24T07:09:11.265Z,5.26
2017-11-24T07:11:38.758Z,5.34
2017-11-24T07:14:06.230Z,5.36
2017-11-24T07:16:34.173Z,5.40
2017-11-24T07:19:01.728Z,5.35
2017-11-24T07:21:29.232Z,5.33
2017-11-24T07:23:56.701Z,5.17
2017-11-24T07:26:24.145Z,5.18
2017-11-24T07:28:51.608Z,5.27
2017-11-24T07:31:19.097Z,5.37
2017-11-24T07:33:46.554Z,5.32
2017-11-24T07:36:14.018Z,5.22
2017-11-24T07:38:41.513Z,5.20
2017-11-24T07:41:08.974Z,5.30
2017-11-24T07:43:36.469Z,5.24
2017-11-24T07:46:03.944Z,5.24
2017-11-24T07:48:31.534Z,5.23
2017-11-24T07:50:59.017Z,5.26
2017-11-24T07:53:26.498Z,5.38
2017-11-24T07:55:53.953Z,5.48
2017-11-24T07:58:21.474Z,5.61
2017-11-24T08:00:48.953Z,5.57
2017-11-24T08:03:18.457Z,5.55
2017-11-24T08:05:45.933Z,5.59
2017-11-24T08:08:13.448Z,5.61
2017-11-24T08:10:40.940Z,5.61
2017-11-24T08:13:08.406Z,5.64
2017-11-24T08:15:35.865Z,5.68
2017-11-24T08:18:03.351Z,5.62
2017-11-24T08:20:31.003Z,5.62
2017-11-24T08:22:58.507Z,5.60
2017-11-24T08:25:25.982Z,5.66
2017-11-24T08:27:53.440Z,5.68
2017-11-24T08:30:20.898Z,5.74
2017-11-24T08:32:48.352Z,5.73
2017-11-24T08:35:15.900Z,5.75
2017-11-24T08:37:43.403Z,5.78
2017-11-24T08:40:10.885Z,5.81
2017-11-24T08:42:38.372Z,5.80
2017-11-24T08:45:05.877Z,5.87
2017-11-24T08:47:38.915Z,5.89
2017-11-24T08:50:06.421Z,5.87
2017-11-24T08:52:33.893Z,5.77
2017-11-24T08:55:01.974Z,5.81
2017-11-24T08:57:29.467Z,5.89
2017-11-24T08:59:57.018Z,5.95
2017-11-24T09:02:24.511Z,5.87
2017-11-24T09:04:52.979Z,5.87
2017-11-24T09:07:20.449Z,5.97
2017-11-24T09:09:47.916Z,5.95
2017-11-24T09:12:15.386Z,5.84
2017-11-24T09:14:42.848Z,5.90
2017-11-24T09:17:10.334Z,5.87
2017-11-24T09:19:37.790Z,5.97
2017-11-24T09:22:05.245Z,5.93
2017-11-24T09:24:32.790Z,6.04
2017-11-24T09:27:00.259Z,6.10
2017-11-24T09:29:27.716Z,6.07
2017-11-24T09:31:55.198Z,6.07
2017-11-24T09:34:22.661Z,6.07
2017-11-24T09:36:50.120Z,6.19
2017-11-24T09:39:17.665Z,6.29
2017-11-24T09:41:45.139Z,6.36
2017-11-24T09:44:12.631Z,6.35
2017-11-24T09:46:40.131Z,6.32
2017-11-24T09:49:07.589Z,6.33
2017-11-24T09:51:35.072Z,6.36
2017-11-24T09:54:02.542Z,6.44
2017-11-24T09:56:29.988Z,6.46
2017-11-24T09:58:57.473Z,6.50
2017-11-24T10:01:24.962Z,6.48
2017-11-24T10:03:52.435Z,6.55
2017-11-24T10:06:19.895Z,6.61
2017-11-24T10:08:47.401Z,6.43
2017-11-24T10:11:14.869Z,6.37
2017-11-24T10:13:42.342Z,6.43
2017-11-24T10:16:09.798Z,6.54
2017-11-24T10:18:37.266Z,6.66
2017-11-24T10:34:00.785Z,6.73
2017-11-24T10:36:28.816Z,6.78
2017-11-24T10:38:56.284Z,6.81
2017-11-24T10:41:23.743Z,6.84
2017-11-24T10:43:51.196Z,6.89
2017-11-24T10:46:18.765Z,6.90
2017-11-24T10:48:47.388Z,6.91
2017-11-24T10:51:15.032Z,6.90
2017-11-24T10:53:42.529Z,6.94
2017-11-24T10:56:09.986Z,7.05
2017-11-24T10:58:37.521Z,7.10
2017-11-24T11:01:05.234Z,7.11
2017-11-24T11:03:32.702Z,7.14
2017-11-24T11:06:00.200Z,7.17
2017-11-24T11:08:27.664Z,7.17
2017-11-24T11:10:55.123Z,7.28
2017-11-24T11:13:22.592Z,7.23
2017-11-24T11:15:50.091Z,7.18
2017-11-24T11:18:17.545Z,7.18
2017-11-24T11:20:45.005Z,7.20
2017-11-24T11:23:12.501Z,7.22
2017-11-24T11:25:39.979Z,7.31
2017-11-24T11:28:07.448Z,7.25
2017-11-24T11:30:34.918Z,7.20
2017-11-24T11:33:02.368Z,7.18
2017-11-24T11:35:29.853Z,7.15
2017-11-24T11:37:57.325Z,7.13
2017-11-24T11:40:24.785Z,7.20
2017-11-24T11:42:52.297Z,7.27
2017-11-24T11:45:19.829Z,7.21
2017-11-24T11:47:47.314Z,7.23
2017-11-24T11:50:15.020Z,7.25
2017-11-24T11:52:43.114Z,7.24
2017-11-24T11:55:10.597Z,7.31
2017-11-24T11:57:38.107Z,7.32
2017-11-24T12:00:05.629Z,7.37
2017-11-24T12:02:33.231Z,7.42
2017-11-24T12:05:00.917Z,7.38
2017-11-24T12:07:28.420Z,7.38
2017-11-24T12:09:55.886Z,7.41
2017-11-24T12:12:23.366Z,7.44
2017-11-24T12:14:50.911Z,7.30
2017-11-24T12:17:18.395Z,7.35
2017-11-24T12:19:45.868Z,7.34
2017-11-24T12:22:13.438Z,7.29
2017-11-24T12:24:40.930Z,7.34
2017-11-24T12:27:08.419Z,7.31
2017-11-24T12:29:35.897Z,7.28
2017-11-24T12:32:03.368Z,7.23
2017-11-24T12:34:31.667Z,7.18
2017-11-24T12:36:59.198Z,7.06
2017-11-24T12:39:26.689Z,7.06
2017-11-24T12:41:54.217Z,7.00
2017-11-24T12:44:21.693Z,6.86
2017-11-24T12:46:49.184Z,6.88
2017-11-24T12:49:16.679Z,6.89
2017-11-24T12:51:44.168Z,6.84
2017-11-24T12:54:11.663Z,6.81
2017-11-24T12:56:39.351Z,6.82
2017-11-24T12:59:06.839Z,6.89
2017-11-24T13:01:34.322Z,6.88
2017-11-24T13:04:01.816Z,6.86
2017-11-24T13:06:29.381Z,6.91
2017-11-24T13:08:56.878Z,6.79
2017-11-24T13:11:24.364Z,6.75
2017-11-24T13:13:51.857Z,6.70
2017-11-24T13:16:19.343Z,6.71
2017-11-24T13:18:46.813Z,6.67
2017-11-24T13:21:14.328Z,6.69
2017-11-24T13:23:41.829Z,6.72
2017-11-24T13:26:09.294Z,6.70
2017-11-24T13:28:36.837Z,6.69
2017-11-24T13:31:04.509Z,6.75
2017-11-24T13:33:31.981Z,6.73
2017-11-24T13:35:59.491Z,6.75
2017-11-24T13:38:26.997Z,6.66
2017-11-24T13:40:54.661Z,6.74
2017-11-24T13:43:22.161Z,6.79
2017-11-24T13:45:49.646Z,6.75
2017-11-24T13:48:17.114Z,6.70
2017-11-24T13:50:44.717Z,6.68
2017-11-24T13:53:12.219Z,6.67
2017-11-24T13:55:39.743Z,6.70
2017-11-24T13:58:07.265Z,6.64
2017-11-24T14:00:34.752Z,6.59
2017-11-24T14:03:02.240Z,6.59
2017-11-24T14:05:29.776Z,6.64
2017-11-24T14:07:57.252Z,6.57
2017-11-24T14:10:24.851Z,6.52
2017-11-24T14:12:52.348Z,6.57
2017-11-24T14:15:19.889Z,6.65
2017-11-24T14:17:47.383Z,6.61
2017-11-24T14:20:14.893Z,6.52
2017-11-24T14:22:42.469Z,6.54
2017-11-24T14:25:09.997Z,6.54
2017-11-24T14:27:37.496Z,6.50
2017-11-24T14:30:04.998Z,6.54
2017-11-24T14:32:34.957Z,6.44
2017-11-24T14:35:02.471Z,6.43
2017-11-24T14:37:29.988Z,6.37
2017-11-24T14:39:57.494Z,6.34
2017-11-24T14:42:25.113Z,6.34
2017-11-24T14:44:52.660Z,6.39
2017-11-24T14:47:20.153Z,6.43
2017-11-24T14:49:47.614Z,6.37
2017-11-24T14:52:15.301Z,6.28
2017-11-24T14:54:43.497Z,6.34
2017-11-24T14:57:10.995Z,6.43
2017-11-24T14:59:38.480Z,6.39
2017-11-24T15:02:06.009Z,6.27
2017-11-24T15:04:33.694Z,6.26
2017-11-24T15:07:01.173Z,6.21
2017-11-24T15:09:28.681Z,6.26
2017-11-24T15:11:56.166Z,6.26
2017-11-24T15:14:23.671Z,6.25
2017-11-24T15:16:51.159Z,6.10
2017-11-24T15:19:18.665Z,6.12
2017-11-24T15:21:46.166Z,6.08
2017-11-24T15:24:13.666Z,6.11
2017-11-24T15:26:41.152Z,6.07
2017-11-24T15:29:08.851Z,6.05
2017-11-24T15:31:36.411Z,5.96
2017-11-24T15:34:03.943Z,5.95
2017-11-24T15:36:31.446Z,5.87
2017-11-24T15:38:58.971Z,5.84
2017-11-24T15:41:26.485Z,5.83
2017-11-24T15:43:53.985Z,5.84
2017-11-24T15:46:21.497Z,5.86
2017-11-24T15:48:48.999Z,5.83
2017-11-24T15:51:19.407Z,5.71
2017-11-24T15:53:46.901Z,5.73
2017-11-24T15:56:14.430Z,5.68
2017-11-24T15:58:41.908Z,5.65
2017-11-24T16:01:09.389Z,5.67
2017-11-24T16:03:36.885Z,5.69
2017-11-24T16:06:04.402Z,5.69
2017-11-24T16:08:32.118Z,5.69
2017-11-24T16:10:59.638Z,5.62
2017-11-24T16:13:27.240Z,5.60
2017-11-24T16:15:54.738Z,5.55
2017-11-24T16:18:22.237Z,5.64
2017-11-24T16:20:49.728Z,5.59
2017-11-24T16:23:17.266Z,5.71
2017-11-24T16:25:44.772Z,5.71
2017-11-24T16:28:12.264Z,5.64
2017-11-24T16:30:39.856Z,5.62
2017-11-24T16:33:07.336Z,5.62
2017-11-24T16:35:34.876Z,5.56
2017-11-24T16:38:02.370Z,5.55
2017-11-24T16:40:29.881Z,5.60
2017-11-24T16:42:57.382Z,5.54
2017-11-24T16:45:32.418Z,5.48
2017-11-24T16:48:00.538Z,5.46
2017-11-24T16:50:28.083Z,5.55
2017-11-24T16:53:05.733Z,5.53
2017-11-24T16:55:34.146Z,5.44
2017-11-24T16:58:02.063Z,5.51
2017-11-24T17:00:31.357Z,5.42
2017-11-24T17:02:58.840Z,5.41
2017-11-24T17:05:26.323Z,5.36
2017-11-24T17:07:53.850Z,5.32
2017-11-24T17:10:21.321Z,5.31
2017-11-24T17:12:49.128Z,5.36
2017-11-24T17:15:16.822Z,5.35
2017-11-24T17:17:44.342Z,5.40
2017-11-24T17:20:11.815Z,5.42
2017-11-24T17:22:39.262Z,5.40
2017-11-24T17:25:06.726Z,5.40
2017-11-24T17:27:34.187Z,5.37
2017-11-24T17:30:01.694Z,5.37
2017-11-24T17:32:29.190Z,5.35
2017-11-24T17:34:56.702Z,5.31
2017-11-24T17:37:24.178Z,5.27
2017-11-24T17:39:51.685Z,5.26
2017-11-24T17:42:19.281Z,5.24
2017-11-24T17:44:47.005Z,5.25
2017-11-24T17:47:14.509Z,5.16
2017-11-24T17:49:42.001Z,5.17
2017-11-24T17:52:09.478Z,5.15
2017-11-24T17:54:36.940Z,5.25
2017-11-24T17:57:04.429Z,5.23
2017-11-24T17:59:31.909Z,5.35
2017-11-24T18:01:59.434Z,5.31
2017-11-24T18:04:26.929Z,5.37
2017-11-24T18:06:54.461Z,5.30
2017-11-24T18:09:21.981Z,5.29
2017-11-24T18:11:49.683Z,5.23
2017-11-24T18:14:17.340Z,5.22
2017-11-24T18:16:44.798Z,5.19
2017-11-24T18:19:12.249Z,5.20
2017-11-24T18:21:39.702Z,5.22
2017-11-24T18:24:07.189Z,5.25
2017-11-24T18:26:34.645Z,5.31
2017-11-24T18:29:02.160Z,5.26
2017-11-24T18:31:29.646Z,5.28
2017-11-24T18:33:57.125Z,5.34
2017-11-24T18:36:25.504Z,5.30
2017-11-24T18:38:52.985Z,5.30
2017-11-24T18:41:20.449Z,5.28
2017-11-24T18:43:47.936Z,5.37
2017-11-24T18:46:15.751Z,5.37
2017-11-24T18:48:44.393Z,5.36
2017-11-24T18:51:11.873Z,5.36
2017-11-24T18:53:39.402Z,5.28
2017-11-24T18:56:06.922Z,5.18
2017-11-24T18:58:34.629Z,5.26
2017-11-24T19:01:02.701Z,5.33
2017-11-24T19:03:30.202Z,5.37
2017-11-24T19:05:57.685Z,5.24
2017-11-24T19:08:25.149Z,5.26
2017-11-24T19:10:52.729Z,5.27
2017-11-24T19:13:20.217Z,5.34
2017-11-24T19:15:47.747Z,5.34
2017-11-24T19:18:16.064Z,5.33
2017-11-24T19:20:43.585Z,5.24
2017-11-24T19:23:11.075Z,5.24
2017-11-24T19:25:38.571Z,5.28
2017-11-24T19:28:06.034Z,5.27
2017-11-24T19:30:33.502Z,5.33
2017-11-24T19:33:00.984Z,5.38
2017-11-24T19:35:28.456Z,5.36
2017-11-24T19:37:55.921Z,5.31
2017-11-24T19:40:23.427Z,5.31
2017-11-24T19:42:51.738Z,5.30
2017-11-24T19:45:19.292Z,5.42
2017-11-24T19:47:46.777Z,5.36
2017-11-24T19:50:14.332Z,5.24
2017-11-24T19:52:41.787Z,5.31
2017-11-24T19:55:09.259Z,5.26
2017-11-24T19:57:36.738Z,5.30
2017-11-24T20:00:04.243Z,5.23
2017-11-24T20:02:31.703Z,5.28
2017-11-24T20:04:59.224Z,5.33
2017-11-24T20:07:26.751Z,5.27
2017-11-24T20:09:54.235Z,5.29
2017-11-24T20:12:21.695Z,5.41
2017-11-24T20:14:49.167Z,5.34
2017-11-24T20:17:16.713Z,5.34
2017-11-24T20:19:44.283Z,5.29
2017-11-24T20:22:11.757Z,5.30
2017-11-24T20:24:39.231Z,5.34
2017-11-24T20:27:06.744Z,5.27
2017-11-24T20:29:34.207Z,5.24
2017-11-24T20:32:01.795Z,5.28
2017-11-24T20:34:29.306Z,5.31
2017-11-24T20:36:56.817Z,5.28
2017-11-24T20:39:24.602Z,5.25
2017-11-24T20:41:52.072Z,5.28
2017-11-24T20:44:19.646Z,5.34
2017-11-24T20:46:47.101Z,5.32
2017-11-24T20:49:14.553Z,5.38
2017-11-24T20:51:42.033Z,5.31
2017-11-24T20:54:09.484Z,5.25
2017-11-24T20:56:36.965Z,5.23
2017-11-24T20:59:04.458Z,5.24
2017-11-24T21:01:31.934Z,5.32
2017-11-24T21:03:59.440Z,5.39
2017-11-24T21:06:26.938Z,5.34
2017-11-24T21:08:54.483Z,5.38
2017-11-24T21:11:22.027Z,5.39
2017-11-24T21:13:49.515Z,5.40
2017-11-24T21:16:17.621Z,5.42
2017-11-24T21:18:48.738Z,5.40
2017-11-24T21:21:17.124Z,5.41
2017-11-24T21:23:44.742Z,5.41
2017-11-24T21:26:12.303Z,5.46
2017-11-24T21:28:39.833Z,5.45
2017-11-24T21:31:07.367Z,5.50
2017-11-24T21:33:34.865Z,5.52
2017-11-24T21:36:02.320Z,5.45
2017-11-24T21:38:29.785Z,5.46
2017-11-24T21:40:57.242Z,5.44
2017-11-24T21:43:24.732Z,5.51
2017-11-24T21:45:52.204Z,5.51
2017-11-24T21:48:19.692Z,5.46
2017-11-24T21:50:47.221Z,5.44
2017-11-24T21:53:14.722Z,5.41
2017-11-24T21:55:42.249Z,5.46
2017-11-24T21:58:09.774Z,5.44
2017-11-24T22:00:37.237Z,5.39
2017-11-24T22:03:04.762Z,5.47
2017-11-24T22:05:32.282Z,5.45
2017-11-24T22:07:59.744Z,5.39
2017-11-24T22:10:27.218Z,5.37
2017-11-24T22:12:54.705Z,5.44
2017-11-24T22:15:22.193Z,5.45
2017-11-24T22:17:49.689Z,5.51
2017-11-24T22:20:17.516Z,5.48
2017-11-24T22:22:45.028Z,5.55
2017-11-24T22:25:12.584Z,5.52
2017-11-24T22:27:40.890Z,5.48
2017-11-24T22:30:08.396Z,5.47
2017-11-24T22:32:36.745Z,5.41
2017-11-24T22:47:59.272Z,5.39
2017-11-24T22:50:26.757Z,5.40
2017-11-24T22:52:54.213Z,5.39
2017-11-24T22:55:21.684Z,5.41
2017-11-24T22:57:49.198Z,5.45
2017-11-24T23:00:16.656Z,5.41
2017-11-24T23:02:44.204Z,5.43
2017-11-24T23:05:11.751Z,5.47
2017-11-24T23:07:39.242Z,5.45
2017-11-24T23:10:06.909Z,5.50
2017-11-24T23:12:34.365Z,5.52
2017-11-24T23:15:01.911Z,5.43
2017-11-24T23:17:29.394Z,5.45
2017-11-24T23:19:56.864Z,5.39
2017-11-24T23:22:24.364Z,5.43
2017-11-24T23:24:51.816Z,5.41
2017-11-24T23:27:19.389Z,5.39
2017-11-24T23:29:46.886Z,5.44
2017-11-24T23:32:14.812Z,5.45
2017-11-24T23:34:42.461Z,5.46
2017-11-24T23:37:10.070Z,5.55
2017-11-24T23:39:37.546Z,5.56
2017-11-24T23:42:05.085Z,5.64
2017-11-24T23:44:34.568Z,5.55
2017-11-24T23:47:02.340Z,5.47
2017-11-24T23:49:29.833Z,5.51
2017-11-24T23:51:57.302Z,5.43
2017-11-24T23:54:24.761Z,5.40
2017-11-24T23:56:52.244Z,5.41
2017-11-24T23:59:20.397Z,5.35
